createdAt,value
2018-06-10T00:00:20.988Z,20.50
2018-06-10T00:02:49.940Z,20.40
2018-06-10T00:05:18.262Z,20.40
2018-06-10T00:07:46.627Z,20.50
2018-06-10T00:10:15.008Z,20.50
2018-06-10T00:12:43.316Z,20.50
2018-06-10T00:15:11.636Z,20.40
2018-06-10T00:17:39.994Z,20.40
2018-06-10T00:20:08.324Z,20.50
2018-06-10T00:22:36.624Z,20.50
2018-06-10T00:25:05.304Z,20.60
2018-06-10T00:27:33.660Z,20.50
2018-06-10T00:30:01.994Z,20.60
2018-06-10T00:32:30.377Z,20.50
2018-06-10T00:34:59.573Z,20.50
2018-06-10T00:37:29.304Z,20.50
2018-06-10T00:39:57.628Z,20.50
2018-06-10T00:42:26.480Z,20.40
2018-06-10T00:44:54.989Z,20.50
2018-06-10T00:47:23.320Z,20.60
2018-06-10T00:49:51.671Z,20.70
2018-06-10T00:52:20.000Z,20.60
2018-06-10T00:54:49.331Z,20.50
2018-06-10T00:57:17.631Z,20.60
2018-06-10T00:59:45.963Z,20.60
2018-06-10T01:02:14.332Z,20.60
2018-06-10T01:04:42.639Z,20.70
2018-06-10T01:07:10.935Z,20.70
2018-06-10T01:09:39.841Z,20.60
2018-06-10T01:12:08.199Z,20.60
2018-06-10T01:14:36.491Z,20.50
2018-06-10T01:17:04.840Z,20.50
2018-06-10T01:19:33.148Z,20.60
2018-06-10T01:22:02.203Z,20.60
2018-06-10T01:24:30.493Z,20.60
2018-06-10T01:26:58.808Z,20.60
2018-06-10T01:29:27.107Z,20.50
2018-06-10T01:31:56.305Z,20.50
2018-06-10T01:34:24.596Z,20.60
2018-06-10T01:36:52.920Z,20.60
2018-06-10T01:39:21.263Z,20.70
2018-06-10T01:41:49.609Z,20.70
2018-06-10T01:44:17.903Z,20.80
2018-06-10T01:46:46.219Z,20.70
2018-06-10T01:49:14.516Z,20.70
2018-06-10T01:51:44.076Z,20.70
2018-06-10T01:54:12.387Z,20.70
2018-06-10T01:56:40.712Z,20.60
2018-06-10T01:59:09.009Z,20.60
2018-06-10T02:01:37.319Z,20.60
2018-06-10T02:04:05.655Z,20.70
2018-06-10T02:06:34.923Z,20.60
2018-06-10T02:09:04.083Z,20.60
2018-06-10T02:11:32.399Z,20.40
2018-06-10T02:14:04.523Z,20.40
2018-06-10T02:16:32.836Z,20.50
2018-06-10T02:19:01.164Z,20.40
2018-06-10T02:21:29.483Z,20.30
2018-06-10T02:23:57.811Z,20.20
2018-06-10T02:26:26.114Z,20.20
2018-06-10T02:28:54.463Z,20.20
2018-06-10T02:31:22.816Z,20.20
2018-06-10T02:33:51.120Z,20.10
2018-06-10T02:36:19.428Z,19.90
2018-06-10T02:38:47.738Z,19.60
2018-06-10T02:41:16.055Z,19.50
2018-06-10T02:43:44.369Z,19.30
2018-06-10T02:46:12.683Z,19.30
2018-06-10T02:48:40.987Z,19.20
2018-06-10T02:51:09.300Z,19.30
2018-06-10T02:53:37.609Z,19.10
2018-06-10T02:56:05.980Z,19.00
2018-06-10T02:58:34.281Z,18.90
2018-06-10T03:01:02.604Z,18.90
2018-06-10T03:03:30.996Z,18.90
2018-06-10T03:05:59.315Z,18.80
2018-06-10T03:08:27.668Z,18.70
2018-06-10T03:10:55.984Z,18.70
2018-06-10T03:13:24.285Z,18.70
2018-06-10T03:15:52.601Z,18.50
2018-06-10T03:18:20.888Z,18.70
2018-06-10T03:20:49.207Z,18.70
2018-06-10T03:23:17.537Z,18.70
2018-06-10T03:25:45.872Z,18.70
2018-06-10T03:28:14.177Z,18.70
2018-06-10T03:30:42.530Z,18.70
2018-06-10T03:33:11.519Z,18.60
2018-06-10T03:35:39.820Z,18.50
2018-06-10T03:38:08.392Z,18.50
2018-06-10T03:40:36.704Z,18.60
2018-06-10T03:43:05.016Z,18.60
2018-06-10T03:45:34.354Z,18.60
2018-06-10T03:48:02.668Z,18.60
2018-06-10T03:50:31.039Z,18.60
2018-06-10T03:52:59.360Z,18.50
2018-06-10T03:55:27.683Z,18.40
2018-06-10T03:57:55.992Z,18.40
2018-06-10T04:00:24.967Z,18.50
2018-06-10T04:02:53.326Z,18.60
2018-06-10T04:05:21.631Z,18.80
2018-06-10T04:07:49.980Z,18.80
2018-06-10T04:10:18.356Z,18.80
2018-06-10T04:12:46.691Z,18.90
2018-06-10T04:15:14.991Z,19.00
2018-06-10T04:17:43.327Z,19.20
2018-06-10T04:20:11.636Z,19.20
2018-06-10T04:22:40.034Z,19.20
2018-06-10T04:25:08.279Z,19.20
2018-06-10T04:27:36.843Z,19.30
2018-06-10T04:30:05.867Z,19.30
2018-06-10T04:32:34.196Z,19.30
2018-06-10T04:35:03.344Z,19.40
2018-06-10T04:37:32.155Z,19.50
2018-06-10T04:40:00.468Z,19.50
2018-06-10T04:42:28.795Z,19.60
2018-06-10T04:44:57.135Z,19.60
2018-06-10T04:47:28.236Z,19.60
2018-06-10T04:49:57.541Z,19.70
2018-06-10T04:52:26.156Z,19.60
2018-06-10T04:54:54.629Z,19.70
2018-06-10T04:57:22.944Z,19.60
2018-06-10T04:59:51.244Z,19.60
2018-06-10T05:02:19.556Z,19.60
2018-06-10T05:04:47.863Z,19.60
2018-06-10T05:07:16.704Z,19.70
2018-06-10T05:09:45.407Z,19.70
2018-06-10T05:12:14.504Z,19.70
2018-06-10T05:14:42.804Z,19.70
2018-06-10T05:17:11.584Z,19.70
2018-06-10T05:19:39.963Z,19.70
2018-06-10T05:22:09.070Z,19.80
2018-06-10T05:24:37.440Z,19.90
2018-06-10T05:27:05.757Z,19.90
2018-06-10T05:29:34.093Z,19.90
2018-06-10T05:32:03.391Z,20.00
2018-06-10T05:34:31.732Z,20.10
2018-06-10T05:37:00.049Z,20.20
2018-06-10T05:39:28.356Z,20.10
2018-06-10T05:41:56.664Z,20.10
2018-06-10T05:44:24.987Z,20.10
2018-06-10T05:46:53.722Z,20.20
2018-06-10T05:49:22.081Z,20.40
2018-06-10T05:51:50.413Z,20.50
2018-06-10T05:54:18.837Z,20.60
2018-06-10T05:56:47.212Z,20.70
2018-06-10T05:59:15.515Z,20.70
2018-06-10T06:01:43.852Z,21.00
2018-06-10T06:04:12.159Z,21.10
2018-06-10T06:06:40.533Z,21.20
2018-06-10T06:09:08.871Z,21.30
2018-06-10T06:11:37.164Z,21.40
2018-06-10T06:14:05.536Z,21.40
2018-06-10T06:16:33.837Z,21.40
2018-06-10T06:19:02.152Z,21.50
2018-06-10T06:21:30.447Z,21.60
2018-06-10T06:23:58.760Z,21.50
2018-06-10T06:26:27.064Z,21.50
2018-06-10T06:28:56.080Z,21.30
2018-06-10T06:31:24.411Z,21.20
2018-06-10T06:33:52.724Z,21.20
2018-06-10T06:36:21.039Z,21.30
2018-06-10T06:38:49.339Z,21.30
2018-06-10T06:41:17.669Z,21.30
2018-06-10T06:43:45.967Z,21.20
2018-06-10T06:46:14.273Z,21.20
2018-06-10T06:48:42.580Z,21.30
2018-06-10T06:51:10.924Z,21.40
2018-06-10T06:53:39.230Z,21.40
2018-06-10T06:56:07.623Z,21.40
2018-06-10T06:58:35.937Z,21.40
2018-06-10T07:01:04.263Z,21.40
2018-06-10T07:03:32.559Z,21.40
2018-06-10T07:06:00.947Z,21.40
2018-06-10T07:08:29.340Z,21.60
2018-06-10T07:10:57.691Z,21.80
2018-06-10T07:13:26.044Z,21.70
2018-06-10T07:15:54.398Z,21.60
2018-06-10T07:18:22.716Z,21.50
2018-06-10T07:20:51.103Z,21.60
2018-06-10T07:23:19.432Z,21.50
2018-06-10T07:25:47.816Z,21.60
2018-06-10T07:28:16.131Z,21.50
2018-06-10T07:30:44.447Z,22.00
2018-06-10T07:33:14.257Z,22.10
2018-06-10T07:35:42.576Z,21.90
2018-06-10T07:38:10.942Z,21.90
2018-06-10T07:40:39.463Z,21.80
2018-06-10T07:43:07.727Z,21.90
2018-06-10T07:45:36.095Z,21.80
2018-06-10T07:48:04.636Z,21.90
2018-06-10T07:50:32.948Z,21.70
2018-06-10T07:53:01.267Z,21.50
2018-06-10T07:55:29.571Z,21.40
2018-06-10T07:57:57.902Z,21.40
2018-06-10T08:00:27.033Z,21.30
2018-06-10T08:02:55.644Z,21.20
2018-06-10T08:05:23.992Z,21.20
2018-06-10T08:07:53.177Z,21.10
2018-06-10T08:10:21.516Z,21.10
2018-06-10T08:12:49.828Z,21.10
2018-06-10T08:15:18.144Z,21.10
2018-06-10T08:17:46.443Z,21.00
2018-06-10T08:20:15.601Z,21.00
2018-06-10T08:22:43.926Z,21.00
2018-06-10T08:25:12.228Z,21.10
2018-06-10T08:27:40.536Z,21.10
2018-06-10T08:30:08.860Z,21.20
2018-06-10T08:32:37.164Z,21.30
2018-06-10T08:35:06.617Z,21.40
2018-06-10T08:37:34.927Z,21.50
2018-06-10T08:40:03.256Z,21.40
2018-06-10T08:42:31.556Z,21.40
2018-06-10T08:45:00.413Z,21.60
2018-06-10T08:47:28.724Z,21.70
2018-06-10T08:49:57.077Z,21.70
2018-06-10T08:52:25.388Z,21.50
2018-06-10T08:54:53.840Z,21.50
2018-06-10T08:57:22.446Z,21.50
2018-06-10T08:59:50.772Z,21.50
2018-06-10T09:02:19.084Z,21.50
2018-06-10T09:04:47.419Z,21.50
2018-06-10T09:07:15.764Z,21.60
2018-06-10T09:09:44.060Z,21.70
2018-06-10T09:12:12.370Z,21.70
2018-06-10T09:14:40.683Z,21.60
2018-06-10T09:17:09.012Z,21.60
2018-06-10T09:19:37.380Z,21.60
2018-06-10T09:22:05.725Z,21.70
2018-06-10T09:24:34.020Z,21.80
2018-06-10T09:27:02.340Z,21.90
2018-06-10T09:29:30.715Z,22.10
2018-06-10T09:31:59.036Z,22.20
2018-06-10T09:34:27.348Z,22.40
2018-06-10T09:36:55.676Z,22.50
2018-06-10T09:39:23.976Z,22.60
2018-06-10T09:41:52.286Z,22.80
2018-06-10T09:44:20.620Z,23.10
2018-06-10T09:46:48.921Z,23.30
2018-06-10T09:49:17.243Z,23.10
2018-06-10T09:51:45.657Z,23.30
2018-06-10T09:54:13.976Z,24.00
2018-06-10T09:56:42.284Z,24.00
2018-06-10T09:59:10.601Z,24.20
2018-06-10T10:01:38.911Z,24.10
2018-06-10T10:04:07.236Z,23.80
2018-06-10T10:06:35.544Z,23.80
2018-06-10T10:09:05.612Z,23.90
2018-06-10T10:11:33.933Z,24.30
2018-06-10T10:14:02.252Z,24.40
2018-06-10T10:16:30.575Z,24.40
2018-06-10T10:18:58.900Z,24.30
2018-06-10T10:21:27.292Z,24.50
2018-06-10T10:23:55.620Z,24.40
2018-06-10T10:26:23.940Z,24.30
2018-06-10T10:28:52.255Z,24.00
2018-06-10T10:31:20.560Z,23.90
2018-06-10T10:33:48.920Z,23.80
2018-06-10T10:36:17.246Z,23.80
2018-06-10T10:38:45.553Z,23.90
2018-06-10T10:41:13.880Z,23.80
2018-06-10T10:43:42.184Z,23.60
2018-06-10T10:46:10.504Z,23.60
2018-06-10T10:48:38.880Z,23.70
2018-06-10T10:51:07.197Z,23.70
2018-06-10T10:53:35.526Z,23.70
2018-06-10T10:56:03.865Z,23.80
2018-06-10T10:58:32.167Z,23.80
2018-06-10T11:01:00.534Z,24.00
2018-06-10T11:03:28.863Z,24.40
2018-06-10T11:05:57.192Z,24.90
2018-06-10T11:08:25.577Z,24.90
2018-06-10T11:10:53.876Z,25.00
2018-06-10T11:13:22.228Z,25.40
2018-06-10T11:15:50.556Z,25.50
2018-06-10T11:18:18.856Z,25.50
2018-06-10T11:20:47.158Z,25.60
2018-06-10T11:23:15.472Z,25.60
2018-06-10T11:25:43.777Z,25.50
2018-06-10T11:28:12.096Z,25.70
2018-06-10T11:30:40.456Z,26.50
2018-06-10T11:33:08.764Z,26.40
2018-06-10T11:35:37.076Z,26.20
2018-06-10T11:38:05.394Z,26.20
2018-06-10T11:40:33.690Z,26.00
2018-06-10T11:43:02.319Z,25.90
2018-06-10T11:45:30.623Z,25.90
2018-06-10T11:47:58.951Z,25.90
2018-06-10T11:50:27.270Z,25.60
2018-06-10T11:52:55.583Z,25.50
2018-06-10T11:55:23.904Z,25.70
2018-06-10T11:57:52.235Z,25.50
2018-06-10T12:00:20.535Z,25.50
2018-06-10T12:02:48.868Z,25.80
2018-06-10T12:05:17.191Z,25.70
2018-06-10T12:07:45.495Z,25.60
2018-06-10T12:10:13.803Z,25.60
2018-06-10T12:12:42.141Z,25.50
2018-06-10T12:15:10.460Z,25.70
2018-06-10T12:17:38.752Z,25.90
2018-06-10T12:20:07.113Z,26.00
2018-06-10T12:22:35.463Z,26.20
2018-06-10T12:25:04.149Z,26.30
2018-06-10T12:27:32.643Z,26.80
2018-06-10T12:30:00.944Z,26.70
2018-06-10T12:32:29.987Z,26.40
2018-06-10T12:34:58.285Z,26.40
2018-06-10T12:37:26.632Z,26.20
2018-06-10T12:39:54.928Z,26.00
2018-06-10T12:42:23.239Z,26.20
2018-06-10T12:44:51.539Z,26.40
2018-06-10T12:47:19.884Z,26.70
2018-06-10T12:49:48.235Z,27.00
2018-06-10T12:52:16.548Z,27.20
2018-06-10T12:54:44.844Z,27.80
2018-06-10T12:57:13.818Z,28.00
2018-06-10T12:59:42.080Z,27.90
2018-06-10T13:02:10.740Z,27.80
2018-06-10T13:04:39.032Z,27.80
2018-06-10T13:07:07.390Z,28.30
2018-06-10T13:09:35.691Z,28.50
2018-06-10T13:12:04.022Z,28.10
2018-06-10T13:14:32.316Z,27.60
2018-06-10T13:17:00.645Z,27.10
2018-06-10T13:19:28.952Z,26.70
2018-06-10T13:21:57.276Z,26.70
2018-06-10T13:24:25.572Z,27.10
2018-06-10T13:26:53.871Z,27.80
2018-06-10T13:29:22.177Z,27.70
2018-06-10T13:31:50.530Z,27.80
2018-06-10T13:34:18.829Z,27.70
2018-06-10T13:36:47.129Z,27.80
2018-06-10T13:39:15.440Z,27.70
2018-06-10T13:41:43.740Z,27.70
2018-06-10T13:44:12.216Z,28.20
2018-06-10T13:46:40.876Z,28.50
2018-06-10T13:49:10.012Z,28.60
2018-06-10T13:51:38.439Z,28.80
2018-06-10T13:54:06.781Z,28.50
2018-06-10T13:56:35.080Z,27.80
2018-06-10T13:59:03.426Z,27.50
2018-06-10T14:01:31.748Z,27.40
2018-06-10T14:04:00.062Z,27.40
2018-06-10T14:06:28.379Z,27.30
2018-06-10T14:08:56.729Z,27.20
2018-06-10T14:11:25.028Z,28.10
2018-06-10T14:13:53.402Z,28.80
2018-06-10T14:16:21.767Z,28.70
2018-06-10T14:18:50.107Z,28.80
2018-06-10T14:21:18.504Z,28.80
2018-06-10T14:23:46.816Z,28.20
2018-06-10T14:26:15.118Z,28.70
2018-06-10T14:28:43.422Z,28.60
2018-06-10T14:31:11.752Z,28.20
2018-06-10T14:33:40.091Z,28.20
2018-06-10T14:36:08.400Z,28.10
2018-06-10T14:38:36.728Z,28.20
2018-06-10T14:41:05.067Z,28.60
2018-06-10T14:43:33.371Z,28.70
2018-06-10T14:46:01.700Z,28.10
2018-06-10T14:48:30.030Z,27.70
2018-06-10T14:50:58.356Z,27.30
2018-06-10T14:53:26.668Z,27.10
2018-06-10T14:55:54.984Z,26.90
2018-06-10T14:58:23.316Z,27.00
2018-06-10T15:00:51.628Z,26.80
2018-06-10T15:03:19.943Z,26.60
2018-06-10T15:05:48.274Z,26.30
2018-06-10T15:08:16.589Z,26.20
2018-06-10T15:10:44.941Z,25.90
2018-06-10T15:13:13.261Z,25.70
2018-06-10T15:15:41.572Z,25.70
2018-06-10T15:18:09.873Z,25.60
2018-06-10T15:20:38.204Z,25.50
2018-06-10T15:23:06.507Z,25.40
2018-06-10T15:25:34.824Z,25.20
2018-06-10T15:28:03.400Z,25.20
2018-06-10T15:30:31.708Z,25.10
2018-06-10T15:33:00.009Z,24.90
2018-06-10T15:35:28.359Z,24.90
2018-06-10T15:37:56.688Z,24.90
2018-06-10T15:40:25.019Z,24.80
2018-06-10T15:42:53.340Z,25.00
2018-06-10T15:45:21.636Z,25.70
2018-06-10T15:47:50.808Z,26.80
2018-06-10T15:50:19.178Z,27.70
2018-06-10T15:52:47.476Z,28.40
2018-06-10T15:55:15.772Z,29.10
2018-06-10T15:57:44.096Z,29.10
2018-06-10T16:00:12.433Z,29.00
2018-06-10T16:02:40.794Z,28.80
2018-06-10T16:05:09.096Z,29.30
2018-06-10T16:07:37.400Z,30.20
2018-06-10T16:10:05.768Z,30.20
2018-06-10T16:12:34.076Z,30.00
2018-06-10T16:15:03.350Z,30.90
2018-06-10T16:17:31.656Z,30.60
2018-06-10T16:20:00.628Z,30.60
2018-06-10T16:22:28.933Z,30.80
2018-06-10T16:24:57.220Z,31.10
2018-06-10T16:27:25.580Z,31.30
2018-06-10T16:29:53.917Z,31.00
2018-06-10T16:32:22.208Z,30.60
2018-06-10T16:34:50.500Z,30.10
2018-06-10T16:37:18.864Z,29.40
2018-06-10T16:39:47.199Z,29.50
2018-06-10T16:42:15.905Z,28.90
2018-06-10T16:44:44.227Z,29.40
2018-06-10T16:47:12.540Z,29.50
2018-06-10T16:49:40.859Z,29.80
2018-06-10T16:52:10.506Z,29.10
2018-06-10T16:54:38.868Z,28.30
2018-06-10T16:57:07.216Z,28.50
2018-06-10T16:59:35.533Z,28.70
2018-06-10T17:02:03.868Z,29.10
2018-06-10T17:04:32.189Z,29.40
2018-06-10T17:07:00.497Z,29.00
2018-06-10T17:09:29.216Z,29.10
2018-06-10T17:11:57.561Z,29.00
2018-06-10T17:14:25.816Z,29.30
2018-06-10T17:16:54.112Z,29.30
2018-06-10T17:19:22.451Z,29.00
2018-06-10T17:21:50.820Z,29.10
2018-06-10T17:24:19.127Z,29.30
2018-06-10T17:26:47.436Z,29.10
2018-06-10T17:29:15.739Z,28.90
2018-06-10T17:31:44.060Z,28.90
2018-06-10T17:34:12.376Z,28.50
2018-06-10T17:36:40.692Z,28.30
2018-06-10T17:39:09.011Z,27.90
2018-06-10T17:41:37.360Z,27.90
2018-06-10T17:44:05.708Z,28.00
2018-06-10T17:46:34.016Z,28.00
2018-06-10T17:49:02.652Z,27.70
2018-06-10T17:51:31.128Z,27.70
2018-06-10T17:53:59.463Z,27.70
2018-06-10T17:56:27.797Z,27.80
2018-06-10T17:58:56.120Z,27.60
2018-06-10T18:01:24.453Z,27.80
2018-06-10T18:03:52.760Z,27.50
2018-06-10T18:06:21.178Z,27.40
2018-06-10T18:08:49.673Z,27.40
2018-06-10T18:11:17.989Z,27.30
2018-06-10T18:13:46.288Z,27.00
2018-06-10T18:16:14.904Z,27.00
2018-06-10T18:18:43.298Z,26.90
2018-06-10T18:21:11.630Z,26.80
2018-06-10T18:23:39.974Z,26.70
2018-06-10T18:26:08.361Z,26.50
2018-06-10T18:28:36.719Z,26.20
2018-06-10T18:31:05.229Z,25.90
2018-06-10T18:33:33.580Z,25.50
2018-06-10T18:36:01.892Z,25.30
2018-06-10T18:38:30.212Z,25.30
2018-06-10T18:40:58.592Z,25.20
2018-06-10T18:43:26.864Z,25.00
2018-06-10T18:45:55.192Z,25.00
2018-06-10T18:48:23.586Z,25.00
2018-06-10T18:50:52.479Z,24.80
2018-06-10T18:53:20.796Z,24.70
2018-06-10T18:55:49.567Z,24.60
2018-06-10T18:58:17.889Z,24.60
2018-06-10T19:00:46.210Z,24.40
2018-06-10T19:03:14.520Z,24.20
2018-06-10T19:05:42.812Z,24.20
2018-06-10T19:08:11.125Z,24.20
2018-06-10T19:10:39.438Z,24.10
2018-06-10T19:13:07.768Z,24.00
2018-06-10T19:15:36.118Z,24.00
2018-06-10T19:18:04.467Z,23.90
2018-06-10T19:20:32.841Z,23.90
2018-06-10T19:23:01.159Z,23.80
2018-06-10T19:25:29.481Z,23.60
2018-06-10T19:27:57.793Z,23.30
2018-06-10T19:30:26.234Z,23.20
2018-06-10T19:32:54.564Z,23.00
2018-06-10T19:35:22.880Z,22.80
2018-06-10T19:37:51.395Z,22.70
2018-06-10T19:40:19.862Z,22.60
2018-06-10T19:42:48.371Z,22.70
2018-06-10T19:45:16.686Z,22.80
2018-06-10T19:47:45.009Z,22.80
2018-06-10T19:50:14.325Z,22.80
2018-06-10T19:52:42.633Z,22.90
2018-06-10T19:55:11.536Z,22.80
2018-06-10T19:57:40.032Z,22.50
2018-06-10T20:00:08.798Z,22.30
2018-06-10T20:02:37.096Z,22.10
2018-06-10T20:05:05.953Z,22.00
2018-06-10T20:07:34.268Z,21.80
2018-06-10T20:10:02.580Z,21.70
2018-06-10T20:12:30.900Z,21.60
2018-06-10T20:14:59.231Z,21.50
2018-06-10T20:17:27.552Z,21.30
2018-06-10T20:19:55.881Z,21.10
2018-06-10T20:22:24.200Z,21.10
2018-06-10T20:24:53.804Z,21.20
2018-06-10T20:27:22.103Z,21.00
2018-06-10T20:29:50.441Z,21.00
2018-06-10T20:32:18.742Z,20.90
2018-06-10T20:34:47.040Z,20.70
2018-06-10T20:37:15.343Z,20.60
2018-06-10T20:39:43.644Z,20.50
2018-06-10T20:42:12.428Z,20.50
2018-06-10T20:44:40.683Z,20.60
2018-06-10T20:47:10.073Z,20.60
2018-06-10T20:49:38.828Z,20.60
2018-06-10T20:52:07.152Z,20.50
2018-06-10T20:54:36.083Z,20.50
2018-06-10T20:57:04.592Z,20.40
2018-06-10T20:59:32.908Z,20.20
2018-06-10T21:04:29.748Z,20.20
2018-06-10T21:06:58.072Z,20.20
2018-06-10T21:09:26.390Z,20.20
2018-06-10T21:11:55.588Z,20.20
2018-06-10T21:14:24.040Z,20.30
2018-06-10T21:16:52.964Z,20.30
2018-06-10T21:19:21.879Z,20.50
2018-06-10T21:21:50.255Z,20.40
2018-06-10T21:24:18.931Z,20.40
2018-06-10T21:26:47.264Z,20.20
2018-06-10T21:29:15.588Z,20.10
2018-06-10T21:31:43.901Z,20.00
2018-06-10T21:34:12.213Z,20.00
2018-06-10T21:36:40.583Z,19.90
2018-06-10T21:39:09.444Z,19.90
2018-06-10T21:41:37.976Z,19.80
2018-06-10T21:44:06.458Z,19.60
2018-06-10T21:46:34.781Z,19.50
2018-06-10T21:49:03.096Z,19.50
2018-06-10T21:51:31.412Z,19.50
2018-06-10T21:53:59.764Z,19.50
2018-06-10T21:56:28.099Z,19.50
2018-06-10T21:58:56.920Z,19.40
2018-06-10T22:01:25.240Z,19.40
2018-06-10T22:03:53.544Z,19.40
2018-06-10T22:06:21.853Z,19.50
2018-06-10T22:08:50.157Z,19.40
2018-06-10T22:11:18.480Z,19.30
2018-06-10T22:13:46.811Z,19.20
2018-06-10T22:16:15.133Z,19.10
2018-06-10T22:18:43.441Z,19.00
2018-06-10T22:21:11.757Z,18.90
2018-06-10T22:23:40.055Z,18.90
2018-06-10T22:26:08.368Z,18.90
2018-06-10T22:28:36.677Z,19.00
2018-06-10T22:31:05.004Z,19.10
2018-06-10T22:33:33.316Z,19.10
2018-06-10T22:36:02.284Z,19.10
2018-06-10T22:38:30.592Z,19.10
2018-06-10T22:40:58.899Z,19.00
2018-06-10T22:43:27.229Z,19.00
2018-06-10T22:45:55.545Z,19.10
2018-06-10T22:48:23.860Z,19.20
2018-06-10T22:50:52.169Z,19.20
2018-06-10T22:53:45.933Z,19.10
2018-06-10T22:56:14.235Z,19.20
2018-06-10T22:58:42.528Z,19.30
2018-06-10T23:01:10.905Z,19.40
2018-06-10T23:03:39.161Z,19.50
2018-06-10T23:06:07.489Z,19.40
2018-06-10T23:08:35.813Z,19.30
2018-06-10T23:11:04.120Z,19.20
2018-06-10T23:13:32.429Z,19.20
2018-06-10T23:16:00.757Z,19.20
2018-06-10T23:18:29.055Z,19.20
2018-06-10T23:20:57.404Z,19.10
2018-06-10T23:23:25.706Z,18.90
2018-06-10T23:25:54.013Z,18.90
2018-06-10T23:28:22.329Z,19.00
2018-06-10T23:30:51.569Z,19.00
2018-06-10T23:33:19.876Z,19.10
2018-06-10T23:35:48.169Z,19.00
2018-06-10T23:38:16.491Z,19.10
2018-06-10T23:40:44.868Z,19.10
2018-06-10T23:43:13.183Z,19.10
2018-06-10T23:45:41.476Z,18.90
2018-06-10T23:48:09.787Z,19.00
2018-06-10T23:50:38.107Z,19.00
2018-06-10T23:53:06.428Z,18.90
2018-06-10T23:55:35.449Z,18.90
2018-06-10T23:58:03.788Z,18.90
